createdAt,value
2024-04-08T00:01:47.282Z,101287.00
2024-04-08T00:04:14.735Z,101285.19
2024-04-08T00:06:42.164Z,101285.19
2024-04-08T00:09:09.699Z,101282.63
2024-04-08T00:11:37.247Z,101288.84
2024-04-08T00:14:04.869Z,101278.06
2024-04-08T00:16:32.341Z,101286.16
2024-04-08T00:18:59.922Z,101279.94
2024-04-08T00:21:27.468Z,101273.69
2024-04-08T00:23:54.938Z,101280.78
2024-04-08T00:26:22.403Z,101269.16
2024-04-08T00:28:50.925Z,101264.63
2024-04-08T00:31:18.469Z,101270.16
2024-04-08T00:33:46.014Z,101264.75
2024-04-08T00:36:14.310Z,101255.00
2024-04-08T00:38:41.896Z,101255.84
2024-04-08T00:41:09.529Z,101252.16
2024-04-08T00:43:36.981Z,101248.59
2024-04-08T00:46:04.769Z,101245.91
2024-04-08T00:48:32.281Z,101247.75
2024-04-08T00:50:59.942Z,101247.59
2024-04-08T00:53:27.684Z,101237.84
2024-04-08T00:55:56.275Z,101236.13
2024-04-08T00:58:24.708Z,101230.75
2024-04-08T01:00:52.249Z,101231.59
2024-04-08T01:03:20.251Z,101225.38
2024-04-08T01:05:49.319Z,101222.66
2024-04-08T01:08:16.846Z,101219.97
2024-04-08T01:10:44.760Z,101216.44
2024-04-08T01:13:12.382Z,101210.16
2024-04-08T01:15:40.140Z,101214.59
2024-04-08T01:18:07.772Z,101213.75
2024-04-08T01:20:35.261Z,101219.13
2024-04-08T01:23:02.984Z,101211.91
2024-04-08T01:25:30.512Z,101212.88
2024-04-08T01:27:58.174Z,101219.13
2024-04-08T01:30:26.322Z,101210.16
2024-04-08T01:32:53.856Z,101210.16
2024-04-08T01:35:21.353Z,101212.88
2024-04-08T01:37:48.801Z,101217.41
2024-04-08T01:40:16.313Z,101210.16
2024-04-08T01:42:43.868Z,101214.72
2024-04-08T01:45:11.350Z,101207.47
2024-04-08T01:47:38.951Z,101212.88
2024-04-08T01:50:07.372Z,101212.00
2024-04-08T01:52:34.894Z,101209.31
2024-04-08T01:55:02.787Z,101213.00
2024-04-08T01:57:30.268Z,101206.63
2024-04-08T01:59:57.985Z,101203.09
2024-04-08T02:02:25.567Z,101197.69
2024-04-08T02:04:53.059Z,101194.16
2024-04-08T02:07:20.688Z,101195.84
2024-04-08T02:09:48.295Z,101191.31
2024-04-08T02:12:15.751Z,101188.78
2024-04-08T02:14:43.244Z,101186.09
2024-04-08T02:17:10.705Z,101186.94
2024-04-08T02:19:38.262Z,101187.94
2024-04-08T02:22:05.766Z,101190.63
2024-04-08T02:24:33.376Z,101192.31
2024-04-08T02:27:00.860Z,101189.63
2024-04-08T02:29:28.660Z,101194.16
2024-04-08T02:31:56.107Z,101190.47
2024-04-08T02:34:23.538Z,101196.84
2024-04-08T02:36:50.993Z,101191.47
2024-04-08T02:39:18.756Z,101195.16
2024-04-08T02:41:46.356Z,101195.00
2024-04-08T02:44:13.882Z,101186.22
2024-04-08T02:46:41.544Z,101177.16
2024-04-08T02:49:08.988Z,101178.16
2024-04-08T02:51:37.321Z,101175.47
2024-04-08T02:54:04.821Z,101185.38
2024-04-08T02:56:33.675Z,101179.84
2024-04-08T02:59:01.127Z,101178.16
2024-04-08T03:01:28.747Z,101178.16
2024-04-08T03:03:56.237Z,101179.13
2024-04-08T03:06:23.738Z,101176.31
2024-04-08T03:08:51.366Z,101176.31
2024-04-08T03:11:18.982Z,101164.69
2024-04-08T03:13:47.337Z,101173.63
2024-04-08T03:16:14.779Z,101178.84
2024-04-08T03:18:42.287Z,101172.63
2024-04-08T03:21:09.869Z,101170.78
2024-04-08T03:23:37.423Z,101170.78
2024-04-08T03:26:08.147Z,101178.84
2024-04-08T03:28:35.977Z,101173.47
2024-04-08T03:31:05.145Z,101175.16
2024-04-08T03:33:33.447Z,101173.47
2024-04-08T03:36:02.093Z,101178.84
2024-04-08T03:38:29.634Z,101173.47
2024-04-08T03:41:01.289Z,101167.97
2024-04-08T03:43:29.551Z,101171.63
2024-04-08T03:45:58.515Z,101170.78
2024-04-08T03:48:26.240Z,101158.16
2024-04-08T03:50:54.220Z,101160.84
2024-04-08T03:53:21.803Z,101157.31
2024-04-08T03:55:49.327Z,101149.22
2024-04-08T03:58:16.785Z,101151.22
2024-04-08T04:00:44.233Z,101151.94
2024-04-08T04:03:11.878Z,101139.47
2024-04-08T04:05:39.455Z,101150.22
2024-04-08T04:08:07.221Z,101150.22
2024-04-08T04:10:34.689Z,101147.69
2024-04-08T04:13:02.272Z,101155.63
2024-04-08T04:15:29.915Z,101157.47
2024-04-08T04:17:57.567Z,101162.97
2024-04-08T04:20:28.411Z,101155.75
2024-04-08T04:22:55.919Z,101149.50
2024-04-08T04:25:24.567Z,101155.88
2024-04-08T04:27:52.119Z,101163.97
2024-04-08T04:30:20.036Z,101161.25
2024-04-08T04:32:48.003Z,101156.88
2024-04-08T04:35:15.884Z,101142.41
2024-04-08T04:37:43.676Z,101159.56
2024-04-08T04:40:11.344Z,101163.97
2024-04-08T04:42:38.771Z,101170.19
2024-04-08T04:45:09.067Z,101159.56
2024-04-08T04:47:36.618Z,101164.97
2024-04-08T04:50:05.285Z,101162.25
2024-04-08T04:52:34.653Z,101166.78
2024-04-08T04:55:02.163Z,101174.88
2024-04-08T04:57:29.586Z,101170.34
2024-04-08T04:59:57.098Z,101173.03
2024-04-08T05:02:24.621Z,101166.78
2024-04-08T05:04:52.125Z,101165.09
2024-04-08T05:07:19.680Z,101168.66
2024-04-08T05:09:47.133Z,101169.59
2024-04-08T05:12:14.638Z,101177.69
2024-04-08T05:14:42.167Z,101178.56
2024-04-08T05:17:09.620Z,101175.88
2024-04-08T05:19:37.912Z,101163.38
2024-04-08T05:22:05.439Z,101175.00
2024-04-08T05:24:32.930Z,101183.94
2024-04-08T05:27:00.437Z,101186.75
2024-04-08T05:29:28.153Z,101179.53
2024-04-08T05:31:55.649Z,101181.38
2024-04-08T05:34:23.080Z,101185.75
2024-04-08T05:36:50.764Z,101176.00
2024-04-08T05:39:18.299Z,101183.22
2024-04-08T05:41:45.914Z,101187.59
2024-04-08T05:44:13.440Z,101189.44
2024-04-08T05:46:40.983Z,101194.72
2024-04-08T05:49:08.423Z,101195.69
2024-04-08T05:51:36.070Z,101200.94
2024-04-08T05:54:03.607Z,101205.50
2024-04-08T05:56:31.219Z,101207.31
2024-04-08T05:59:00.878Z,101200.09
2024-04-08T06:01:30.010Z,101201.91
2024-04-08T06:03:57.641Z,101193.84
2024-04-08T06:06:25.162Z,101199.22
2024-04-08T06:09:04.538Z,101205.00
2024-04-08T06:11:32.659Z,101200.03
2024-04-08T06:14:00.803Z,101205.69
2024-04-08T06:16:28.290Z,101203.28
2024-04-08T06:18:57.138Z,101218.69
2024-04-08T06:21:25.854Z,101228.63
2024-04-08T06:23:53.326Z,101226.78
2024-04-08T06:26:21.042Z,101225.06
2024-04-08T06:28:48.477Z,101230.47
2024-04-08T06:31:16.010Z,101231.31
2024-04-08T06:33:43.459Z,101238.41
2024-04-08T06:36:13.915Z,101249.03
2024-04-08T06:38:41.459Z,101251.75
2024-04-08T06:41:08.925Z,101249.75
2024-04-08T06:43:36.487Z,101252.44
2024-04-08T06:46:04.087Z,101247.06
2024-04-08T06:48:31.607Z,101244.09
2024-04-08T06:50:59.644Z,101237.72
2024-04-08T06:53:27.348Z,101245.69
2024-04-08T06:55:54.924Z,101254.63
2024-04-08T06:58:23.326Z,101253.38
2024-04-08T07:00:51.801Z,101262.16
2024-04-08T07:03:19.664Z,101262.59
2024-04-08T07:05:47.909Z,101262.06
2024-04-08T07:08:18.323Z,101260.69
2024-04-08T07:10:47.399Z,101267.41
2024-04-08T07:13:14.965Z,101264.41
2024-04-08T07:15:44.239Z,101255.09
2024-04-08T07:18:12.314Z,101263.75
2024-04-08T07:20:40.172Z,101260.78
2024-04-08T07:23:07.819Z,101263.06
2024-04-08T07:25:35.311Z,101262.81
2024-04-08T07:28:02.871Z,101271.47
2024-04-08T07:30:31.377Z,101271.22
2024-04-08T07:32:59.225Z,101277.44
2024-04-08T07:35:28.139Z,101279.00
2024-04-08T07:37:55.803Z,101277.19
2024-04-08T07:40:23.875Z,101270.78
2024-04-08T07:42:51.765Z,101265.41
2024-04-08T07:45:19.367Z,101269.78
2024-04-08T07:47:46.962Z,101276.88
2024-04-08T07:50:14.568Z,101278.63
2024-04-08T07:52:42.083Z,101278.47
2024-04-08T07:55:10.041Z,101271.22
2024-04-08T07:57:37.501Z,101275.63
2024-04-08T08:00:05.873Z,101279.16
2024-04-08T08:02:37.665Z,101280.03
2024-04-08T08:05:05.467Z,101285.44
2024-04-08T08:07:32.910Z,101281.75
2024-04-08T08:10:00.422Z,101294.22
2024-04-08T08:12:28.331Z,101288.97
2024-04-08T08:14:55.939Z,101292.53
2024-04-08T08:17:29.504Z,101293.38
2024-04-08T08:19:57.435Z,101292.78
2024-04-08T08:22:25.889Z,101290.09
2024-04-08T08:24:53.436Z,101289.94
2024-04-08T08:27:21.018Z,101299.88
2024-04-08T08:29:51.399Z,101300.72
2024-04-08T08:32:19.236Z,101293.22
2024-04-08T08:34:46.765Z,101298.50
2024-04-08T08:37:14.169Z,101299.19
2024-04-08T08:39:41.671Z,101306.16
2024-04-08T08:42:13.947Z,101295.38
2024-04-08T08:44:50.363Z,101294.38
2024-04-08T08:47:18.081Z,101291.53
2024-04-08T08:49:46.709Z,101279.78
2024-04-08T08:52:14.406Z,101291.44
2024-04-08T08:54:41.945Z,101301.22
2024-04-08T08:57:11.364Z,101295.97
2024-04-08T08:59:38.853Z,101297.09
2024-04-08T09:02:06.563Z,101298.78
2024-04-08T09:04:36.169Z,101297.22
2024-04-08T09:07:03.646Z,101292.97
2024-04-08T09:09:33.192Z,101280.47
2024-04-08T09:12:01.386Z,101284.16
2024-04-08T09:14:30.282Z,101291.53
2024-04-08T09:17:11.974Z,101285.44
2024-04-08T09:19:39.448Z,101279.31
2024-04-08T09:22:08.705Z,101289.09
2024-04-08T09:24:36.444Z,101296.34
2024-04-08T09:27:06.945Z,101297.34
2024-04-08T09:29:34.618Z,101295.63
2024-04-08T09:32:02.192Z,101293.78
2024-04-08T09:34:30.707Z,101283.13
2024-04-08T09:36:58.185Z,101291.09
2024-04-08T09:39:27.180Z,101288.50
2024-04-08T09:41:57.928Z,101292.09
2024-04-08T09:44:31.776Z,101285.81
2024-04-08T09:47:02.324Z,101286.69
2024-04-08T09:49:41.553Z,101282.28
2024-04-08T09:52:15.926Z,101273.34
2024-04-08T09:54:43.492Z,101266.09
2024-04-08T09:57:16.255Z,101268.09
2024-04-08T09:59:48.752Z,101263.56
2024-04-08T10:02:21.190Z,101264.41
2024-04-08T10:04:54.264Z,101263.56
2024-04-08T10:07:21.982Z,101260.88
2024-04-08T10:09:50.031Z,101259.00
2024-04-08T10:12:17.584Z,101254.63
2024-04-08T10:14:45.258Z,101258.03
2024-04-08T10:17:13.200Z,101252.78
2024-04-08T10:19:44.727Z,101253.78
2024-04-08T10:22:16.749Z,101251.94
2024-04-08T10:24:44.272Z,101250.09
2024-04-08T10:27:13.533Z,101243.84
2024-04-08T10:29:42.443Z,101231.22
2024-04-08T10:32:10.668Z,101232.91
2024-04-08T10:34:38.285Z,101227.69
2024-04-08T10:37:05.715Z,101224.97
2024-04-08T10:39:33.192Z,101219.59
2024-04-08T10:42:14.288Z,101206.97
2024-04-08T10:44:43.262Z,101215.91
2024-04-08T10:47:11.050Z,101217.75
2024-04-08T10:49:41.660Z,101219.59
2024-04-08T10:52:11.863Z,101206.97
2024-04-08T10:54:39.605Z,101214.19
2024-04-08T10:57:07.169Z,101216.91
2024-04-08T10:59:34.643Z,101216.06
2024-04-08T11:02:02.251Z,101211.63
2024-04-08T11:04:31.048Z,101204.44
2024-04-08T11:06:58.654Z,101209.81
2024-04-08T11:09:26.627Z,101214.19
2024-04-08T11:11:54.845Z,101206.13
2024-04-08T11:14:22.919Z,101201.72
2024-04-08T11:16:50.418Z,101203.44
2024-04-08T11:19:18.366Z,101205.28
2024-04-08T11:21:45.945Z,101190.94
2024-04-08T11:24:13.550Z,101198.03
2024-04-08T11:26:52.535Z,101193.66
2024-04-08T11:29:23.344Z,101192.75
2024-04-08T11:31:50.883Z,101183.72
2024-04-08T11:34:18.282Z,101172.09
2024-04-08T11:36:46.041Z,101177.47
2024-04-08T11:39:13.620Z,101174.78
2024-04-08T11:41:41.226Z,101175.63
2024-04-08T11:44:08.803Z,101168.50
2024-04-08T11:46:36.955Z,101169.25
2024-04-08T11:49:04.489Z,101166.69
2024-04-08T11:51:32.563Z,101169.38
2024-04-08T11:54:00.076Z,101173.78
2024-04-08T11:56:27.551Z,101163.13
2024-04-08T11:58:55.076Z,101155.91
2024-04-08T12:01:22.962Z,101158.63
2024-04-08T12:03:50.518Z,101159.47
2024-04-08T12:06:18.102Z,101147.84
2024-04-08T12:08:45.547Z,101155.91
2024-04-08T12:11:13.137Z,101158.63
2024-04-08T12:13:43.681Z,101153.22
2024-04-08T12:16:11.791Z,101148.69
2024-04-08T12:18:39.495Z,101146.09
2024-04-08T12:21:07.053Z,101143.28
2024-04-08T12:23:34.543Z,101138.03
2024-04-08T12:26:02.214Z,101134.34
2024-04-08T12:28:29.722Z,101126.28
2024-04-08T12:30:59.091Z,101128.09
2024-04-08T12:33:26.936Z,101129.94
2024-04-08T12:35:54.768Z,101129.94
2024-04-08T12:38:22.331Z,101128.97
2024-04-08T12:40:49.814Z,101117.31
2024-04-08T12:43:17.478Z,101123.69
2024-04-08T12:45:45.161Z,101116.47
2024-04-08T12:48:13.474Z,101111.06
2024-04-08T12:50:42.873Z,101109.22
2024-04-08T12:53:10.663Z,101105.69
2024-04-08T12:55:40.409Z,101109.38
2024-04-08T12:58:10.191Z,101111.94
2024-04-08T13:00:37.984Z,101103.84
2024-04-08T13:03:06.640Z,101100.19
2024-04-08T13:05:34.213Z,101096.63
2024-04-08T13:08:02.085Z,101099.44
2024-04-08T13:10:29.598Z,101095.75
2024-04-08T13:12:57.136Z,101097.59
2024-04-08T13:15:24.868Z,101099.34
2024-04-08T13:17:52.476Z,101089.53
2024-04-08T13:20:23.135Z,101096.63
2024-04-08T13:22:55.889Z,101092.22
2024-04-08T13:25:23.421Z,101079.75
2024-04-08T13:27:51.028Z,101085.13
2024-04-08T13:30:19.692Z,101088.66
2024-04-08T13:32:47.397Z,101083.16
2024-04-08T13:35:15.196Z,101078.75
2024-04-08T13:37:42.788Z,101070.66
2024-04-08T13:40:10.506Z,101070.66
2024-04-08T13:42:37.961Z,101066.28
2024-04-08T13:45:06.262Z,101065.28
2024-04-08T13:47:33.967Z,101060.72
2024-04-08T13:50:01.775Z,101057.19
2024-04-08T13:52:29.278Z,101049.94
2024-04-08T13:54:56.715Z,101056.22
2024-04-08T13:57:24.226Z,101058.91
2024-04-08T13:59:51.834Z,101052.53
2024-04-08T14:02:19.360Z,101057.06
2024-04-08T14:04:46.800Z,101056.22
2024-04-08T14:07:14.230Z,101058.91
2024-04-08T14:09:41.780Z,101062.44
2024-04-08T14:12:09.388Z,101061.59
2024-04-08T14:14:36.828Z,101063.41
2024-04-08T14:17:04.399Z,101065.28
2024-04-08T14:19:31.851Z,101059.88
2024-04-08T14:21:59.274Z,101055.34
2024-04-08T14:24:26.888Z,101054.50
2024-04-08T14:26:54.536Z,101056.22
2024-04-08T14:29:27.062Z,101050.81
2024-04-08T14:31:55.154Z,101054.38
2024-04-08T14:34:22.760Z,101045.44
2024-04-08T14:36:52.014Z,101045.44
2024-04-08T14:39:28.958Z,101048.97
2024-04-08T14:42:04.372Z,101041.88
2024-04-08T14:44:40.491Z,101038.19
2024-04-08T14:47:12.967Z,101042.75
2024-04-08T14:49:40.453Z,101048.13
2024-04-08T14:52:10.932Z,101046.56
2024-04-08T14:54:43.464Z,101045.44
2024-04-08T14:57:11.348Z,101033.78
2024-04-08T14:59:38.925Z,101043.72
2024-04-08T15:02:07.311Z,101040.16
2024-04-08T15:04:34.988Z,101035.63
2024-04-08T15:07:04.277Z,101033.78
2024-04-08T15:09:40.367Z,101026.56
2024-04-08T15:12:08.873Z,101019.47
2024-04-08T15:14:36.323Z,101022.16
2024-04-08T15:17:03.944Z,101027.53
2024-04-08T15:19:31.403Z,101015.06
2024-04-08T15:21:58.910Z,101015.91
2024-04-08T15:24:26.515Z,101016.75
2024-04-08T15:26:53.972Z,101011.38
2024-04-08T15:29:21.492Z,101008.69
2024-04-08T15:31:48.968Z,101004.28
2024-04-08T15:34:16.650Z,101010.53
2024-04-08T15:36:44.484Z,101008.69
2024-04-08T15:39:12.942Z,101011.38
2024-04-08T15:41:42.083Z,101021.31
2024-04-08T15:44:10.724Z,101022.16
2024-04-08T15:46:38.298Z,101015.91
2024-04-08T15:49:05.989Z,101010.41
2024-04-08T15:51:33.663Z,101008.69
2024-04-08T15:54:01.424Z,101004.13
2024-04-08T15:56:28.949Z,101015.91
2024-04-08T15:58:56.900Z,101016.75
2024-04-08T16:01:24.399Z,101011.38
2024-04-08T16:03:52.232Z,101021.31
2024-04-08T16:06:19.938Z,101021.19
2024-04-08T16:08:47.400Z,101020.31
2024-04-08T16:11:19.420Z,101017.63
2024-04-08T16:13:47.058Z,101013.09
2024-04-08T16:16:14.694Z,101021.19
2024-04-08T16:18:42.735Z,101021.19
2024-04-08T16:21:10.440Z,101018.50
2024-04-08T16:26:08.591Z,101030.25
2024-04-08T16:28:36.713Z,101029.28
2024-04-08T16:31:06.157Z,101022.03
2024-04-08T16:33:34.464Z,101025.56
2024-04-08T16:36:03.217Z,101024.56
2024-04-08T16:38:30.767Z,101029.97
2024-04-08T16:40:59.954Z,101017.34
2024-04-08T16:43:29.220Z,101021.72
2024-04-08T16:46:01.137Z,101016.34
2024-04-08T16:48:30.024Z,101015.38
2024-04-08T16:50:58.931Z,101017.06
2024-04-08T16:53:29.665Z,101011.66
2024-04-08T16:56:04.668Z,101021.44
2024-04-08T16:58:32.615Z,101016.06
2024-04-08T17:01:01.092Z,101014.09
2024-04-08T17:03:29.317Z,101003.31
2024-04-08T17:06:07.496Z,101007.53
2024-04-08T17:08:34.945Z,101012.91
2024-04-08T17:11:03.035Z,101010.22
2024-04-08T17:13:35.636Z,101011.22
2024-04-08T17:16:06.508Z,101019.31
2024-04-08T17:18:34.253Z,101012.06
2024-04-08T17:21:05.380Z,101020.16
2024-04-08T17:23:33.206Z,101021.00
2024-04-08T17:26:01.104Z,101013.78
2024-04-08T17:28:29.529Z,101020.03
2024-04-08T17:30:58.685Z,101020.88
2024-04-08T17:33:28.655Z,101023.59
2024-04-08T17:35:57.695Z,101022.72
2024-04-08T17:38:26.508Z,101022.72
2024-04-08T17:40:57.182Z,101022.72
2024-04-08T17:43:24.679Z,101021.72
2024-04-08T17:45:52.231Z,101026.28
2024-04-08T17:48:20.522Z,101026.28
2024-04-08T17:50:52.221Z,101027.97
2024-04-08T17:53:21.346Z,101024.44
2024-04-08T17:56:10.581Z,101011.78
2024-04-08T17:58:38.797Z,101010.94
2024-04-08T18:01:08.721Z,101019.16
2024-04-08T18:03:37.311Z,101024.44
2024-04-08T18:06:10.822Z,101023.44
2024-04-08T18:08:42.312Z,101031.50
2024-04-08T18:11:12.473Z,101025.13
2024-04-08T18:13:41.030Z,101027.81
2024-04-08T18:16:16.937Z,101016.06
2024-04-08T18:18:53.038Z,101024.00
2024-04-08T18:21:22.243Z,101032.06
2024-04-08T18:23:50.894Z,101032.91
2024-04-08T18:26:20.406Z,101029.38
2024-04-08T18:28:49.276Z,101023.00
2024-04-08T18:31:17.644Z,101033.78
2024-04-08T18:33:46.110Z,101038.31
2024-04-08T18:36:15.236Z,101034.78
2024-04-08T18:38:42.996Z,101044.56
2024-04-08T18:41:13.465Z,101048.09
2024-04-08T18:43:42.363Z,101054.34
2024-04-08T18:46:12.316Z,101049.81
2024-04-08T18:48:40.425Z,101056.91
2024-04-08T18:51:08.099Z,101052.50
2024-04-08T18:53:35.748Z,101051.50
2024-04-08T18:56:04.068Z,101054.22
2024-04-08T18:58:31.668Z,101059.59
2024-04-08T19:01:06.519Z,101055.06
2024-04-08T19:03:37.788Z,101057.75
2024-04-08T19:06:06.006Z,101063.16
2024-04-08T19:08:33.593Z,101069.38
2024-04-08T19:11:01.097Z,101076.63
2024-04-08T19:13:28.545Z,101078.31
2024-04-08T19:16:01.811Z,101085.56
2024-04-08T19:18:29.380Z,101078.31
2024-04-08T19:20:58.118Z,101073.78
2024-04-08T19:23:26.082Z,101075.63
2024-04-08T19:26:00.081Z,101072.06
2024-04-08T19:28:30.964Z,101076.47
2024-04-08T19:30:58.500Z,101081.84
2024-04-08T19:33:26.449Z,101085.41
2024-04-08T19:36:03.724Z,101084.56
2024-04-08T19:38:32.229Z,101089.81
2024-04-08T19:41:06.172Z,101094.38
2024-04-08T19:43:34.257Z,101097.06
2024-04-08T19:46:13.604Z,101092.50
2024-04-08T19:48:44.659Z,101091.66
2024-04-08T19:51:21.160Z,101097.06
2024-04-08T19:53:54.427Z,101092.63
2024-04-08T19:56:25.915Z,101087.13
2024-04-08T19:58:54.439Z,101081.00
2024-04-08T20:01:22.529Z,101085.41
2024-04-08T20:03:50.602Z,101088.09
2024-04-08T20:06:18.850Z,101084.56
2024-04-08T20:08:46.650Z,101084.56
2024-04-08T20:11:14.301Z,101084.44
2024-04-08T20:13:43.781Z,101089.94
2024-04-08T20:16:17.122Z,101084.56
2024-04-08T20:18:48.560Z,101089.94
2024-04-08T20:21:17.828Z,101095.22
2024-04-08T20:23:45.747Z,101087.97
2024-04-08T20:26:13.880Z,101086.13
2024-04-08T20:28:44.760Z,101085.28
2024-04-08T20:31:12.749Z,101086.28
2024-04-08T20:33:40.776Z,101088.81
2024-04-08T20:36:10.745Z,101098.75
2024-04-08T20:38:39.015Z,101101.44
2024-04-08T20:41:08.336Z,101105.84
2024-04-08T20:43:39.095Z,101099.59
2024-04-08T20:46:07.517Z,101095.22
2024-04-08T20:48:35.865Z,101094.38
2024-04-08T20:51:05.895Z,101087.13
2024-04-08T20:53:34.563Z,101087.13
2024-04-08T20:56:10.498Z,101088.97
2024-04-08T20:58:39.543Z,101087.97
2024-04-08T21:01:10.771Z,101083.59
2024-04-08T21:03:39.840Z,101080.88
2024-04-08T21:06:12.264Z,101079.88
2024-04-08T21:08:44.417Z,101082.56
2024-04-08T21:11:13.534Z,101079.88
2024-04-08T21:13:41.984Z,101077.19
2024-04-08T21:16:10.326Z,101075.34
2024-04-08T21:18:38.907Z,101082.56
2024-04-08T21:21:11.818Z,101077.19
2024-04-08T21:23:40.177Z,101080.00
2024-04-08T21:26:19.282Z,101077.19
2024-04-08T21:28:48.754Z,101086.97
2024-04-08T21:31:17.621Z,101082.69
2024-04-08T21:33:51.471Z,101079.88
2024-04-08T21:36:20.141Z,101079.72
2024-04-08T21:38:52.305Z,101079.72
2024-04-08T21:41:21.717Z,101073.50
2024-04-08T21:43:49.426Z,101064.56
2024-04-08T21:46:20.177Z,101062.72
2024-04-08T21:48:48.834Z,101056.63
2024-04-08T21:51:19.247Z,101065.56
2024-04-08T21:53:47.188Z,101064.72
2024-04-08T21:56:15.515Z,101060.16
2024-04-08T21:58:43.237Z,101059.31
2024-04-08T22:01:11.883Z,101058.44
2024-04-08T22:03:40.694Z,101058.44
2024-04-08T22:06:17.564Z,101058.44
2024-04-08T22:08:46.661Z,101052.19
2024-04-08T22:11:14.557Z,101056.75
2024-04-08T22:13:42.493Z,101055.75
2024-04-08T22:16:10.718Z,101041.41
2024-04-08T22:18:38.580Z,101045.13
2024-04-08T22:21:06.310Z,101037.19
2024-04-08T22:23:33.829Z,101041.56
2024-04-08T22:26:01.299Z,101042.44
2024-04-08T22:28:28.807Z,101046.97
2024-04-08T22:30:56.320Z,101050.50
2024-04-08T22:33:23.945Z,101048.81
2024-04-08T22:35:51.833Z,101046.97
2024-04-08T22:38:19.306Z,101045.13
2024-04-08T22:40:46.851Z,101046.13
2024-04-08T22:43:14.335Z,101050.50
2024-04-08T22:45:42.026Z,101046.97
2024-04-08T22:48:09.761Z,101048.81
2024-04-08T22:50:37.965Z,101051.50
2024-04-08T22:53:05.828Z,101046.13
2024-04-08T22:55:33.321Z,101053.38
2024-04-08T22:58:02.519Z,101047.97
2024-04-08T23:00:30.745Z,101055.22
2024-04-08T23:03:00.938Z,101048.25
2024-04-08T23:05:29.284Z,101041.84
2024-04-08T23:07:56.710Z,101037.47
2024-04-08T23:10:25.761Z,101035.63
2024-04-08T23:12:53.228Z,101024.00
2024-04-08T23:15:20.910Z,101018.75
2024-04-08T23:17:48.560Z,101023.28
2024-04-08T23:20:16.059Z,101022.31
2024-04-08T23:22:43.451Z,101023.44
2024-04-08T23:25:10.948Z,101022.56
2024-04-08T23:27:38.833Z,101017.19
2024-04-08T23:30:07.369Z,101021.72
2024-04-08T23:32:35.302Z,101014.66
2024-04-08T23:35:03.916Z,101019.31
2024-04-08T23:37:31.617Z,101011.06
2024-04-08T23:39:59.179Z,101004.84
2024-04-08T23:42:26.739Z,101009.38
2024-04-08T23:44:54.264Z,101018.47
2024-04-08T23:47:21.994Z,101019.31
2024-04-08T23:49:49.447Z,101014.94
2024-04-08T23:52:16.918Z,101014.94
2024-04-08T23:54:44.637Z,101006.00
2024-04-08T23:57:12.224Z,101008.69
2024-04-08T23:59:39.657Z,101014.22
